Time;durP1;ratioP1;P1;durP2;ratioP2;P2;SDS_P1;SDS_P2;PMS_P1;PMS_P2;Temp;Humidity;BMP_temperature;BMP_pressure;BME280_temperature;BME280_humidity;BME280_pressure;Samples;Min_cycle;Max_cycle;Signal;HPM_P1;HPM_P2
2023/09/30 00:00:11;;;;;;;6.73;3.67;;;16.00;97.50;;;;;;2059105;28;20222;-85
2023/09/30 00:01:14;;;;;;;6.47;2.97;;;16.10;97.20;;;;;;2059759;28;20194;-85
2023/09/30 00:02:15;;;;;;;8.93;3.90;;;16.10;97.20;;;;;;2059813;28;20179;-84
2023/09/30 00:03:15;;;;;;;10.27;3.70;;;16.00;97.30;;;;;;2051709;28;20903;-85
2023/09/30 00:04:16;;;;;;;14.13;4.20;;;16.10;97.20;;;;;;2051325;28;20191;-85
2023/09/30 00:05:19;;;;;;;12.23;3.50;;;16.10;97.20;;;;;;2044912;29;20192;-85
2023/09/30 00:06:20;;;;;;;17.80;4.07;;;16.20;97.30;;;;;;2060087;28;20830;-84
2023/09/30 00:07:21;;;;;;;12.10;4.57;;;16.20;97.20;;;;;;2075342;28;20429;-85
2023/09/30 00:08:21;;;;;;;10.57;3.67;;;16.20;97.20;;;;;;2066894;28;20178;-85
2023/09/30 00:09:22;;;;;;;10.53;3.57;;;16.10;97.50;;;;;;2059700;28;20244;-85
2023/09/30 00:10:23;;;;;;;9.50;3.03;;;16.10;97.50;;;;;;2066819;28;20224;-85
2023/09/30 00:11:23;;;;;;;10.10;3.27;;;16.10;97.60;;;;;;2067435;28;20236;-85
2023/09/30 00:12:24;;;;;;;9.17;3.57;;;16.20;97.60;;;;;;2058970;28;20245;-85
2023/09/30 00:13:25;;;;;;;7.90;3.33;;;16.20;97.50;;;;;;2066480;28;20295;-85
2023/09/30 00:14:26;;;;;;;7.97;3.23;;;16.20;97.40;;;;;;2069038;28;20258;-85
2023/09/30 00:15:26;;;;;;;10.63;3.53;;;16.30;97.30;;;;;;2071416;28;20268;-84
2023/09/30 00:16:28;;;;;;;9.63;3.20;;;16.20;97.30;;;;;;2074233;28;20668;-85
2023/09/30 00:17:29;;;;;;;5.87;3.20;;;16.30;97.20;;;;;;2067245;28;20237;-85
2023/09/30 00:18:29;;;;;;;9.60;3.87;;;16.20;97.30;;;;;;2065915;28;20479;-85
2023/09/30 00:19:32;;;;;;;10.37;3.60;;;16.10;97.40;;;;;;2075280;28;20305;-85
2023/09/30 00:20:33;;;;;;;9.43;3.43;;;16.10;97.10;;;;;;2059541;28;20241;-85
2023/09/30 00:21:34;;;;;;;10.27;3.40;;;16.10;97.10;;;;;;2067014;28;20456;-85
2023/09/30 00:22:34;;;;;;;9.30;3.90;;;16.20;97.00;;;;;;2075451;28;20230;-85
2023/09/30 00:23:35;;;;;;;9.20;3.60;;;16.20;97.40;;;;;;2066421;28;20505;-85
2023/09/30 00:24:36;;;;;;;7.67;3.07;;;16.10;97.10;;;;;;2074015;28;20256;-84
2023/09/30 00:25:36;;;;;;;6.83;3.17;;;16.10;97.20;;;;;;2058729;28;20294;-85
2023/09/30 00:26:37;;;;;;;7.10;3.43;;;16.10;97.80;;;;;;2058482;28;20239;-85
2023/09/30 00:27:38;;;;;;;11.43;3.60;;;15.90;97.70;;;;;;2059059;28;20790;-85
2023/09/30 00:28:38;;;;;;;11.87;4.37;;;16.00;97.70;;;;;;2065869;28;20253;-85
2023/09/30 00:29:39;;;;;;;11.90;3.90;;;16.10;97.50;;;;;;2066287;28;20238;-85
2023/09/30 00:30:40;;;;;;;7.80;3.63;;;16.10;97.20;;;;;;2082562;28;20235;-85
2023/09/30 00:31:41;;;;;;;7.50;3.63;;;16.00;97.20;;;;;;2066648;28;20234;-84
2023/09/30 00:32:41;;;;;;;7.33;3.63;;;16.00;97.40;;;;;;2068689;28;20296;-85
2023/09/30 00:33:42;;;;;;;7.40;3.40;;;16.10;97.40;;;;;;2074837;28;20237;-85
2023/09/30 00:34:43;;;;;;;9.27;3.80;;;16.00;97.40;;;;;;2074677;28;20296;-85
2023/09/30 00:35:43;;;;;;;10.00;4.10;;;16.10;97.20;;;;;;2067418;28;20246;-84
2023/09/30 00:36:44;;;;;;;7.50;3.23;;;16.10;97.40;;;;;;2066196;28;20671;-84
2023/09/30 00:37:45;;;;;;;8.40;3.77;;;16.10;97.30;;;;;;2066731;28;20238;-85
2023/09/30 00:38:46;;;;;;;7.50;3.50;;;16.10;97.30;;;;;;2065872;28;20218;-85
2023/09/30 00:39:46;;;;;;;10.60;3.63;;;16.00;97.40;;;;;;2074608;28;20486;-85
2023/09/30 00:40:48;;;;;;;7.37;3.93;;;16.00;97.50;;;;;;2074821;28;20234;-85
2023/09/30 00:41:49;;;;;;;5.93;3.30;;;15.90;97.90;;;;;;2065698;28;20280;-85
2023/09/30 00:42:50;;;;;;;6.80;3.40;;;15.80;97.80;;;;;;2058989;28;20480;-85
2023/09/30 00:43:51;;;;;;;9.17;3.47;;;15.80;97.80;;;;;;2052624;28;20242;-85
2023/09/30 00:44:51;;;;;;;7.23;3.27;;;15.80;98.20;;;;;;2058610;28;20258;-84
2023/09/30 00:46:02;;;;;;;8.60;3.33;;;15.70;98.50;;;;;;2068837;28;20237;-85
2023/09/30 00:47:04;;;;;;;7.83;3.53;;;15.70;98.90;;;;;;2070921;28;20240;-85
2023/09/30 00:48:06;;;;;;;9.70;3.87;;;15.60;98.60;;;;;;2054169;28;20461;-85
2023/09/30 00:49:07;;;;;;;11.67;3.33;;;15.50;98.40;;;;;;2050005;28;20487;-85
2023/09/30 00:50:10;;;;;;;5.97;3.30;;;15.50;98.50;;;;;;2055711;28;20464;-85
2023/09/30 00:51:11;;;;;;;6.07;3.20;;;15.50;98.40;;;;;;2076028;28;20174;-84
2023/09/30 00:52:12;;;;;;;7.70;3.67;;;15.50;98.30;;;;;;2081012;28;20628;-84
2023/09/30 00:53:13;;;;;;;6.47;3.27;;;15.60;98.20;;;;;;2080351;28;20186;-85
2023/09/30 00:54:14;;;;;;;10.70;3.80;;;15.60;98.20;;;;;;2076606;28;20469;-85
2023/09/30 00:55:16;;;;;;;7.40;3.53;;;15.50;98.30;;;;;;2076638;28;20201;-85
2023/09/30 00:56:18;;;;;;;8.23;3.57;;;15.40;98.60;;;;;;2065975;28;20217;-84
2023/09/30 00:57:20;;;;;;;6.43;2.93;;;15.30;98.80;;;;;;2073739;28;20427;-85
2023/09/30 00:58:25;;;;;;;6.20;3.63;;;15.30;98.60;;;;;;2075723;28;20431;-84
2023/09/30 00:59:26;;;;;;;7.90;3.67;;;15.30;98.80;;;;;;2068282;28;20526;-85
2023/09/30 01:00:28;;;;;;;7.13;3.23;;;15.20;98.60;;;;;;2067358;28;20471;-85
2023/09/30 01:01:29;;;;;;;8.23;3.43;;;15.20;98.50;;;;;;2071670;28;20241;-85
2023/09/30 01:02:30;;;;;;;7.33;3.20;;;15.20;98.40;;;;;;2076092;28;20500;-85
2023/09/30 01:03:31;;;;;;;7.17;3.23;;;15.20;98.70;;;;;;2078455;28;20300;-84
2023/09/30 01:04:32;;;;;;;6.37;3.10;;;15.20;98.60;;;;;;2077020;28;20850;-85
2023/09/30 01:05:33;;;;;;;7.07;3.43;;;15.10;99.10;;;;;;2066609;28;20222;-85
2023/09/30 01:06:34;;;;;;;6.27;3.27;;;14.90;99.40;;;;;;2061781;28;20467;-85
2023/09/30 01:07:35;;;;;;;7.83;2.87;;;14.80;99.70;;;;;;2068462;28;20534;-85
2023/09/30 01:08:35;;;;;;;6.27;3.33;;;14.60;99.90;;;;;;2072856;28;20236;-84
2023/09/30 01:09:36;;;;;;;6.80;3.27;;;14.50;99.90;;;;;;2073406;28;20531;-85
2023/09/30 01:10:37;;;;;;;8.70;3.22;;;14.50;99.90;;;;;;2074208;28;20241;-84
2023/09/30 01:11:40;;;;;;;6.30;2.87;;;14.60;99.90;;;;;;2058695;28;20885;-84
2023/09/30 01:12:41;;;;;;;9.47;3.80;;;14.60;99.90;;;;;;2057232;28;20254;-85
2023/09/30 01:13:43;;;;;;;6.77;3.20;;;14.40;99.90;;;;;;2065997;28;20476;-85
2023/09/30 01:14:44;;;;;;;8.43;3.22;;;14.50;99.90;;;;;;2071462;28;20225;-85
2023/09/30 01:15:45;;;;;;;7.80;3.40;;;14.40;99.90;;;;;;2072714;28;20597;-85
2023/09/30 01:16:45;;;;;;;6.87;3.10;;;14.30;99.90;;;;;;2073774;28;20470;-84
2023/09/30 01:17:46;;;;;;;7.00;3.90;;;14.30;99.90;;;;;;2064072;28;20230;-85
2023/09/30 01:18:47;;;;;;;6.90;3.53;;;14.30;99.90;;;;;;2074660;28;20229;-85
2023/09/30 01:19:49;;;;;;;6.33;3.40;;;14.30;99.90;;;;;;2072329;28;20233;-85
2023/09/30 01:20:52;;;;;;;5.53;3.10;;;14.20;99.90;;;;;;2064514;28;20256;-85
2023/09/30 01:22:03;;;;;;;7.00;3.33;;;14.20;99.90;;;;;;2061766;28;20229;-84
2023/09/30 01:23:04;;;;;;;5.57;3.53;;;14.10;99.90;;;;;;2071988;28;20221;-83
2023/09/30 01:24:05;;;;;;;5.60;2.87;;;14.10;99.90;;;;;;2074634;28;20232;-85
2023/09/30 01:25:06;;;;;;;6.50;3.13;;;14.00;99.90;;;;;;2064140;28;20193;-84
2023/09/30 01:26:09;;;;;;;6.95;3.38;;;14.00;99.90;;;;;;2065178;28;20182;-85
2023/09/30 01:27:10;;;;;;;8.75;3.72;;;14.00;99.90;;;;;;2079150;28;20761;-84
2023/09/30 01:28:11;;;;;;;6.97;3.27;;;13.90;99.90;;;;;;2071272;28;20201;-84
2023/09/30 01:29:12;;;;;;;8.10;3.60;;;13.90;99.90;;;;;;2069897;28;20451;-85
2023/09/30 01:30:13;;;;;;;8.83;3.97;;;13.90;99.90;;;;;;2078121;28;20209;-85
2023/09/30 01:31:14;;;;;;;8.50;3.55;;;13.80;99.90;;;;;;2075615;28;20190;-85
2023/09/30 01:32:15;;;;;;;9.27;4.20;;;13.80;99.90;;;;;;2061990;28;20185;-85
2023/09/30 01:33:18;;;;;;;10.23;4.07;;;13.80;99.90;;;;;;2069703;28;20182;-85
2023/09/30 01:34:19;;;;;;;11.07;3.80;;;13.60;99.90;;;;;;2069339;28;20254;-85
2023/09/30 01:35:21;;;;;;;9.33;3.50;;;13.60;99.90;;;;;;2078150;28;20224;-84
2023/09/30 01:36:24;;;;;;;11.80;4.10;;;13.50;99.90;;;;;;2072250;28;20214;-85
2023/09/30 01:37:28;;;;;;;8.23;3.67;;;13.60;99.90;;;;;;2071438;28;20229;-85
2023/09/30 01:38:28;;;;;;;7.38;3.75;;;13.50;99.90;;;;;;2073030;28;20210;-85
2023/09/30 01:39:32;;;;;;;7.87;3.70;;;13.50;99.90;;;;;;2072991;28;20310;-84
2023/09/30 01:40:33;;;;;;;6.75;3.72;;;13.40;99.90;;;;;;2073275;28;20226;-84
2023/09/30 01:41:33;;;;;;;6.90;3.13;;;13.40;99.90;;;;;;2072612;28;20261;-84
2023/09/30 01:42:34;;;;;;;8.60;3.87;;;13.30;99.90;;;;;;2071939;28;20856;-85
2023/09/30 01:43:36;;;;;;;7.27;4.00;;;13.30;99.90;;;;;;2071220;28;20237;-85
2023/09/30 01:44:36;;;;;;;8.20;3.53;;;13.40;99.90;;;;;;2082130;28;20229;-85
2023/09/30 01:45:37;;;;;;;8.77;3.93;;;13.40;99.90;;;;;;2083907;28;20204;-85
2023/09/30 01:46:38;;;;;;;8.03;3.10;;;13.40;99.90;;;;;;2078902;28;20230;-85
2023/09/30 01:47:39;;;;;;;6.40;3.57;;;13.50;99.90;;;;;;2080431;28;20234;-85
2023/09/30 01:48:40;;;;;;;7.85;3.33;;;13.40;99.90;;;;;;2077960;28;20229;-86
2023/09/30 01:49:41;;;;;;;7.40;3.00;;;13.40;99.90;;;;;;2077665;28;20244;-86
2023/09/30 01:50:41;;;;;;;7.03;3.80;;;13.30;99.90;;;;;;2076047;28;20264;-85
2023/09/30 01:51:43;;;;;;;6.33;2.97;;;13.20;99.90;;;;;;2068342;28;20229;-86
2023/09/30 01:52:47;;;;;;;6.32;2.90;;;13.20;99.90;;;;;;2062843;28;20210;-86
2023/09/30 01:53:48;;;;;;;6.25;3.20;;;13.10;99.90;;;;;;2079456;28;20237;-84
2023/09/30 01:54:48;;;;;;;6.57;3.30;;;13.00;99.90;;;;;;2078664;28;20221;-84
2023/09/30 01:55:49;;;;;;;7.43;3.50;;;12.80;99.90;;;;;;2076355;28;20721;-84
2023/09/30 01:56:50;;;;;;;5.97;3.33;;;12.80;99.90;;;;;;2076591;28;20234;-84
2023/09/30 01:57:50;;;;;;;8.43;3.43;;;12.70;99.90;;;;;;2076335;28;20247;-84
2023/09/30 01:58:52;;;;;;;7.73;3.43;;;12.70;99.90;;;;;;2079856;28;20221;-83
2023/09/30 01:59:52;;;;;;;5.90;3.17;;;12.60;99.90;;;;;;2077194;28;20220;-84
2023/09/30 02:00:53;;;;;;;5.57;3.10;;;12.50;99.90;;;;;;2073957;28;20688;-84
2023/09/30 02:01:54;;;;;;;7.77;3.67;;;12.60;99.90;;;;;;2074183;28;20240;-83
2023/09/30 02:02:57;;;;;;;6.77;3.47;;;12.50;99.90;;;;;;2073837;28;20237;-83
2023/09/30 02:03:58;;;;;;;6.15;3.30;;;12.50;99.90;;;;;;2074674;28;20221;-86
2023/09/30 02:04:58;;;;;;;7.40;3.40;;;12.50;99.90;;;;;;2074225;28;20287;-85
2023/09/30 02:05:59;;;;;;;7.60;3.53;;;12.40;99.90;;;;;;2070679;28;20224;-85
2023/09/30 02:07:00;;;;;;;7.10;3.73;;;12.50;99.90;;;;;;2074240;28;20232;-85
2023/09/30 02:08:05;;;;;;;9.93;3.83;;;12.50;99.90;;;;;;2082855;28;20246;-85
2023/09/30 02:09:08;;;;;;;7.82;3.85;;;12.50;99.90;;;;;;2079690;28;20221;-85
2023/09/30 02:10:09;;;;;;;7.07;3.50;;;12.50;99.90;;;;;;2075578;28;20209;-85
2023/09/30 02:11:10;;;;;;;6.93;3.58;;;12.60;99.90;;;;;;2074750;28;20216;-85
2023/09/30 02:12:11;;;;;;;7.93;4.00;;;12.60;99.90;;;;;;2072924;28;20185;-86
2023/09/30 02:13:11;;;;;;;8.30;3.70;;;12.50;99.90;;;;;;2074957;28;20224;-84
2023/09/30 02:14:12;;;;;;;7.77;3.97;;;12.50;99.90;;;;;;2074867;28;20676;-85
2023/09/30 02:15:13;;;;;;;7.07;3.97;;;12.50;99.90;;;;;;2075425;28;20307;-86
2023/09/30 02:16:14;;;;;;;6.20;3.50;;;12.60;99.90;;;;;;2074417;28;20185;-85
2023/09/30 02:17:15;;;;;;;6.68;3.70;;;12.50;99.90;;;;;;2066377;28;20193;-84
2023/09/30 02:18:15;;;;;;;7.80;3.97;;;12.60;99.90;;;;;;2072401;28;20647;-85
2023/09/30 02:19:16;;;;;;;8.60;3.60;;;12.60;99.90;;;;;;2074734;28;20213;-85
2023/09/30 02:20:19;;;;;;;8.20;3.70;;;12.60;99.90;;;;;;2071440;28;20232;-86
2023/09/30 02:21:21;;;;;;;6.55;3.58;;;12.60;99.90;;;;;;2066280;28;20209;-84
2023/09/30 02:22:24;;;;;;;6.45;3.80;;;12.50;99.90;;;;;;2070668;28;20187;-86
2023/09/30 02:23:25;;;;;;;7.22;3.75;;;12.40;99.90;;;;;;2074708;28;20229;-85
2023/09/30 02:24:26;;;;;;;6.87;3.70;;;12.40;99.90;;;;;;2066746;28;20234;-86
2023/09/30 02:25:26;;;;;;;7.13;3.80;;;12.30;99.90;;;;;;2067406;28;20238;-85
2023/09/30 02:26:29;;;;;;;6.83;3.63;;;12.30;99.90;;;;;;2074388;28;20261;-84
2023/09/30 02:27:29;;;;;;;7.53;3.75;;;12.30;99.90;;;;;;2075276;28;20261;-86
2023/09/30 02:28:32;;;;;;;6.53;3.47;;;12.30;99.90;;;;;;2074723;28;20316;-85
2023/09/30 02:29:32;;;;;;;7.25;3.40;;;12.30;99.90;;;;;;2065818;28;20281;-85
2023/09/30 02:30:33;;;;;;;7.60;4.10;;;12.30;99.90;;;;;;2066177;28;20218;-85
2023/09/30 02:31:34;;;;;;;8.37;3.63;;;12.30;99.90;;;;;;2066215;28;20229;-86
2023/09/30 02:32:35;;;;;;;9.87;4.13;;;12.40;99.90;;;;;;2062953;28;20289;-86
2023/09/30 02:33:35;;;;;;;7.77;3.80;;;12.50;99.90;;;;;;2066453;28;20475;-85
2023/09/30 02:34:36;;;;;;;7.80;4.03;;;12.60;99.90;;;;;;2064882;28;20309;-85
2023/09/30 02:35:38;;;;;;;6.63;3.47;;;12.60;99.90;;;;;;2066497;28;20233;-85
2023/09/30 02:36:39;;;;;;;7.57;3.88;;;12.60;99.90;;;;;;2074065;28;20272;-85
2023/09/30 02:37:40;;;;;;;9.87;4.10;;;12.70;99.90;;;;;;2063768;28;20794;-86
2023/09/30 02:38:41;;;;;;;7.60;3.77;;;12.80;99.90;;;;;;2064159;28;20238;-85
2023/09/30 02:39:43;;;;;;;8.18;3.78;;;12.80;99.90;;;;;;2068808;28;20722;-85
2023/09/30 02:40:46;;;;;;;8.23;4.05;;;12.80;99.90;;;;;;2072339;28;20228;-85
2023/09/30 02:41:49;;;;;;;7.57;3.85;;;12.70;99.90;;;;;;2073809;28;20225;-86
2023/09/30 02:42:51;;;;;;;7.60;3.80;;;12.80;99.90;;;;;;2074663;28;20229;-85
2023/09/30 02:43:52;;;;;;;8.05;4.38;;;12.90;99.90;;;;;;2071288;28;20288;-85
2023/09/30 02:44:52;;;;;;;6.70;3.93;;;12.90;99.90;;;;;;2074769;28;20311;-86
2023/09/30 02:45:53;;;;;;;5.67;3.17;;;12.90;99.90;;;;;;2075966;28;20257;-85
2023/09/30 02:46:54;;;;;;;7.23;3.90;;;13.00;99.90;;;;;;2074464;28;20233;-86
2023/09/30 02:47:54;;;;;;;7.87;3.90;;;12.80;99.90;;;;;;2072912;28;20234;-85
2023/09/30 02:48:55;;;;;;;7.63;3.97;;;12.80;99.90;;;;;;2073531;28;20335;-85
2023/09/30 02:49:57;;;;;;;6.77;3.53;;;12.70;99.90;;;;;;2079088;28;20237;-86
2023/09/30 02:50:58;;;;;;;8.00;3.80;;;12.60;99.90;;;;;;2077333;28;20272;-85
2023/09/30 02:51:58;;;;;;;6.63;3.73;;;12.60;99.90;;;;;;2076752;28;20221;-85
2023/09/30 02:52:59;;;;;;;7.93;3.80;;;12.50;99.90;;;;;;2075944;28;20228;-86
2023/09/30 02:54:00;;;;;;;7.67;3.90;;;12.40;99.90;;;;;;2074710;28;20316;-85
2023/09/30 02:55:00;;;;;;;11.87;4.57;;;12.40;99.90;;;;;;2076251;28;20221;-86
2023/09/30 02:56:01;;;;;;;5.40;3.40;;;12.40;99.90;;;;;;2077158;28;20247;-86
2023/09/30 02:57:03;;;;;;;8.93;4.10;;;12.40;99.90;;;;;;2075979;28;20236;-86
2023/09/30 02:58:04;;;;;;;7.90;3.92;;;12.50;99.90;;;;;;2075086;28;20301;-85
2023/09/30 02:59:07;;;;;;;8.30;3.90;;;12.50;99.90;;;;;;2075365;28;20309;-85
2023/09/30 03:00:25;;;;;;;7.15;3.58;;;12.50;99.90;;;;;;2067693;28;20677;-86
2023/09/30 03:01:26;;;;;;;6.65;3.50;;;12.60;99.90;;;;;;2070138;28;20232;-85
2023/09/30 03:02:27;;;;;;;8.13;3.37;;;12.60;99.90;;;;;;2080989;28;20252;-85
2023/09/30 03:03:27;;;;;;;7.30;4.00;;;12.60;99.90;;;;;;2090368;28;20239;-85
2023/09/30 03:04:28;;;;;;;7.43;3.90;;;12.80;99.90;;;;;;2082494;28;20277;-85
2023/09/30 03:05:32;;;;;;;10.23;3.97;;;12.80;99.90;;;;;;2081969;28;20229;-85
2023/09/30 03:06:36;;;;;;;6.90;4.00;;;12.90;99.90;;;;;;2077247;28;20241;-86
2023/09/30 03:07:38;;;;;;;7.55;4.03;;;13.00;99.90;;;;;;2075922;28;20278;-85
2023/09/30 03:08:38;;;;;;;6.93;4.00;;;13.10;99.90;;;;;;2075865;28;20239;-85
2023/09/30 03:09:39;;;;;;;8.70;3.80;;;13.10;99.90;;;;;;2081120;28;20811;-86
2023/09/30 03:10:40;;;;;;;8.40;3.80;;;13.10;99.90;;;;;;2073732;28;20234;-86
2023/09/30 03:11:42;;;;;;;8.55;3.88;;;13.20;99.90;;;;;;2065750;28;20237;-86
2023/09/30 03:12:43;;;;;;;8.77;4.28;;;13.20;99.90;;;;;;2063985;28;20223;-85
2023/09/30 03:13:43;;;;;;;6.83;3.90;;;13.20;99.90;;;;;;2067560;28;20260;-85
2023/09/30 03:14:45;;;;;;;7.90;4.00;;;13.30;99.90;;;;;;2066912;28;20294;-86
2023/09/30 03:15:46;;;;;;;6.85;3.60;;;13.40;99.90;;;;;;2066880;28;20226;-86
2023/09/30 03:16:47;;;;;;;6.03;3.72;;;13.40;99.90;;;;;;2067630;28;20292;-85
2023/09/30 03:17:48;;;;;;;6.20;3.77;;;13.40;99.90;;;;;;2067338;28;20316;-86
2023/09/30 03:18:49;;;;;;;5.82;3.53;;;13.40;99.90;;;;;;2066952;28;20735;-86
2023/09/30 03:19:50;;;;;;;6.80;3.50;;;13.40;99.90;;;;;;2059072;28;20231;-85
2023/09/30 03:20:51;;;;;;;6.00;3.47;;;13.40;99.90;;;;;;2050936;28;20239;-85
2023/09/30 03:21:51;;;;;;;6.50;3.70;;;13.40;99.90;;;;;;2050938;28;20301;-86
2023/09/30 03:22:52;;;;;;;6.27;3.40;;;13.40;99.90;;;;;;2058627;28;20239;-86
2023/09/30 03:23:53;;;;;;;6.20;3.55;;;13.40;99.90;;;;;;2067840;28;20239;-85
2023/09/30 03:24:57;;;;;;;6.90;3.43;;;13.40;99.90;;;;;;2070138;28;20287;-86
2023/09/30 03:25:58;;;;;;;6.60;3.80;;;13.40;99.90;;;;;;2075029;28;20320;-86
2023/09/30 03:26:59;;;;;;;5.15;3.53;;;13.40;99.90;;;;;;2075427;28;20225;-86
2023/09/30 03:27:59;;;;;;;6.63;3.37;;;13.40;99.90;;;;;;2074385;28;20693;-85
2023/09/30 03:29:00;;;;;;;6.03;3.43;;;13.40;99.90;;;;;;2075285;28;20260;-86
2023/09/30 03:30:05;;;;;;;6.77;3.50;;;13.40;99.90;;;;;;2074344;28;20209;-86
2023/09/30 03:31:06;;;;;;;6.13;3.60;;;13.50;99.90;;;;;;2071006;28;20229;-85
2023/09/30 03:32:07;;;;;;;7.23;3.60;;;13.50;99.90;;;;;;2071817;28;20245;-84
2023/09/30 03:33:07;;;;;;;6.30;3.23;;;13.40;99.90;;;;;;2072673;28;20193;-84
2023/09/30 03:34:08;;;;;;;6.23;3.10;;;13.30;99.90;;;;;;2064708;28;20194;-84
2023/09/30 03:35:19;;;;;;;7.30;3.30;;;13.30;99.90;;;;;;2073104;28;20209;-85
2023/09/30 03:36:26;;;;;;;6.55;3.72;;;13.20;99.90;;;;;;2079702;28;20355;-85
2023/09/30 03:37:27;;;;;;;7.47;3.90;;;13.10;99.90;;;;;;2071868;28;20225;-84
2023/09/30 03:38:29;;;;;;;6.82;3.60;;;13.10;99.90;;;;;;2062691;28;20225;-85
2023/09/30 03:39:29;;;;;;;5.97;3.35;;;13.00;99.90;;;;;;2070150;28;20233;-84
2023/09/30 03:40:33;;;;;;;7.73;3.77;;;12.90;99.90;;;;;;2080435;28;20302;-84
2023/09/30 03:41:37;;;;;;;7.90;3.88;;;12.90;99.90;;;;;;2079693;28;20228;-85
2023/09/30 03:42:39;;;;;;;6.45;3.38;;;12.90;99.90;;;;;;2072916;28;20226;-84
2023/09/30 03:43:42;;;;;;;9.00;3.92;;;12.90;99.90;;;;;;2072634;28;20226;-85
2023/09/30 03:44:43;;;;;;;6.28;3.45;;;12.90;99.90;;;;;;2072594;28;20748;-85
2023/09/30 03:45:43;;;;;;;8.43;4.50;;;12.90;99.90;;;;;;2073587;28;20252;-86
2023/09/30 03:46:44;;;;;;;11.80;4.37;;;12.90;99.90;;;;;;2069119;28;20233;-85
2023/09/30 03:47:47;;;;;;;7.87;4.30;;;12.80;99.90;;;;;;2077961;28;20304;-85
2023/09/30 03:48:48;;;;;;;6.60;3.90;;;12.70;99.90;;;;;;2073176;28;20235;-85
2023/09/30 03:49:48;;;;;;;6.10;3.57;;;12.70;99.90;;;;;;2056620;28;20250;-86
2023/09/30 03:50:49;;;;;;;8.03;4.27;;;12.70;99.90;;;;;;2065176;28;20261;-85
2023/09/30 03:51:50;;;;;;;8.13;4.43;;;12.70;99.90;;;;;;2073706;28;20285;-86
2023/09/30 03:52:51;;;;;;;10.05;4.30;;;12.80;99.90;;;;;;2073313;28;20237;-85
2023/09/30 03:53:52;;;;;;;7.67;3.90;;;12.90;99.90;;;;;;2071517;28;20713;-85
2023/09/30 03:54:53;;;;;;;7.50;4.32;;;12.80;99.90;;;;;;2073228;28;20225;-86
2023/09/30 03:55:55;;;;;;;8.52;3.42;;;12.90;99.90;;;;;;2064998;28;20227;-86
2023/09/30 03:56:55;;;;;;;5.53;3.53;;;13.00;99.90;;;;;;2065585;28;20231;-85
2023/09/30 03:57:56;;;;;;;6.97;4.27;;;12.90;99.90;;;;;;2062412;28;20226;-86
2023/09/30 03:58:57;;;;;;;7.20;3.63;;;12.90;99.90;;;;;;2062364;28;21452;-85
2023/09/30 03:59:57;;;;;;;6.40;3.70;;;13.00;99.90;;;;;;2071472;28;20234;-86
2023/09/30 04:01:00;;;;;;;7.37;3.97;;;13.00;99.90;;;;;;2080539;28;20231;-85
2023/09/30 04:02:01;;;;;;;9.13;3.97;;;13.10;99.90;;;;;;2073986;28;20585;-85
2023/09/30 04:03:02;;;;;;;7.63;4.10;;;13.00;99.90;;;;;;2072743;28;20225;-85
2023/09/30 04:04:04;;;;;;;9.75;4.45;;;13.00;99.90;;;;;;2073259;28;20303;-86
2023/09/30 04:05:05;;;;;;;8.38;4.00;;;13.00;99.90;;;;;;2071572;28;20607;-85
2023/09/30 04:06:06;;;;;;;6.83;3.70;;;12.90;99.90;;;;;;2073398;28;20252;-85
2023/09/30 04:07:09;;;;;;;7.68;4.30;;;13.00;99.90;;;;;;2074591;28;20261;-85
2023/09/30 04:08:11;;;;;;;8.00;4.18;;;12.90;99.90;;;;;;2070611;28;20198;-85
2023/09/30 04:09:13;;;;;;;7.53;4.32;;;12.90;99.90;;;;;;2073517;28;20178;-85
2023/09/30 04:10:13;;;;;;;8.70;4.38;;;12.90;99.90;;;;;;2073213;28;20578;-86
2023/09/30 04:11:18;;;;;;;7.73;4.47;;;12.90;99.90;;;;;;2073246;28;20193;-85
2023/09/30 04:12:18;;;;;;;9.43;4.15;;;12.90;99.90;;;;;;2073567;28;20182;-86
2023/09/30 04:13:20;;;;;;;8.93;4.73;;;12.80;99.90;;;;;;2072870;28;20188;-85
2023/09/30 04:14:21;;;;;;;6.95;4.28;;;12.80;99.90;;;;;;2073353;28;20775;-86
2023/09/30 04:15:22;;;;;;;9.20;3.93;;;12.90;99.90;;;;;;2065590;28;20214;-85
2023/09/30 04:16:22;;;;;;;7.37;4.17;;;12.90;99.90;;;;;;2073304;28;20213;-85
2023/09/30 04:17:23;;;;;;;8.40;4.47;;;12.80;99.90;;;;;;2074295;28;20291;-85
2023/09/30 04:18:26;;;;;;;6.90;4.30;;;12.90;99.90;;;;;;2073093;28;20259;-85
2023/09/30 04:19:26;;;;;;;7.50;4.50;;;12.90;99.90;;;;;;2064340;28;20234;-85
2023/09/30 04:20:27;;;;;;;8.53;4.23;;;12.90;99.90;;;;;;2069593;28;20253;-85
2023/09/30 04:21:29;;;;;;;9.00;3.80;;;12.90;99.90;;;;;;2073782;28;20285;-84
2023/09/30 04:22:32;;;;;;;7.90;4.05;;;12.90;99.90;;;;;;2073464;28;20225;-85
2023/09/30 04:23:36;;;;;;;9.68;4.07;;;13.00;99.90;;;;;;2080690;28;20307;-86
2023/09/30 04:24:36;;;;;;;8.75;4.53;;;12.90;99.90;;;;;;2073454;28;20229;-85
2023/09/30 04:25:37;;;;;;;9.20;4.07;;;12.90;99.90;;;;;;2073111;28;20288;-86
2023/09/30 04:26:39;;;;;;;8.83;4.07;;;12.90;99.90;;;;;;2070377;28;20317;-85
2023/09/30 04:27:39;;;;;;;7.88;4.20;;;12.90;99.90;;;;;;2061318;28;20329;-85
2023/09/30 04:28:40;;;;;;;6.77;4.43;;;12.90;99.90;;;;;;2073394;28;20244;-85
2023/09/30 04:29:41;;;;;;;7.67;4.33;;;13.00;99.90;;;;;;2072545;28;20233;-86
2023/09/30 04:30:41;;;;;;;6.90;3.83;;;12.90;99.90;;;;;;2057107;28;20258;-86
2023/09/30 04:31:42;;;;;;;8.47;4.20;;;12.90;99.90;;;;;;2057053;28;20242;-85
2023/09/30 04:32:43;;;;;;;6.37;3.70;;;12.80;99.90;;;;;;2071631;28;20268;-85
2023/09/30 04:33:44;;;;;;;6.82;3.70;;;12.90;99.90;;;;;;2073563;28;20332;-85
2023/09/30 04:34:46;;;;;;;8.03;4.30;;;12.90;99.90;;;;;;2073699;28;20225;-85
2023/09/30 04:35:47;;;;;;;7.90;4.32;;;12.80;99.90;;;;;;2074432;28;20259;-86
2023/09/30 04:36:48;;;;;;;8.77;4.57;;;12.80;99.90;;;;;;2065969;28;20222;-86
2023/09/30 04:37:48;;;;;;;9.40;4.77;;;12.70;99.90;;;;;;2073592;28;20279;-85
2023/09/30 04:38:49;;;;;;;7.00;4.03;;;12.70;99.90;;;;;;2073897;28;20252;-85
2023/09/30 04:39:50;;;;;;;8.67;4.47;;;12.70;99.90;;;;;;2072855;28;20737;-86
2023/09/30 04:40:51;;;;;;;6.77;3.87;;;12.70;99.90;;;;;;2073472;28;20271;-85
2023/09/30 04:41:51;;;;;;;6.80;3.80;;;12.60;99.90;;;;;;2074557;28;20240;-85
2023/09/30 04:42:58;;;;;;;6.07;3.77;;;12.60;99.90;;;;;;2073002;28;20234;-85
2023/09/30 04:43:59;;;;;;;6.68;3.83;;;12.60;99.90;;;;;;2076573;28;20264;-85
2023/09/30 04:44:59;;;;;;;7.93;3.60;;;12.50;99.90;;;;;;2081556;28;20236;-85
2023/09/30 04:46:01;;;;;;;7.73;3.53;;;12.50;99.90;;;;;;2064173;28;20247;-85
2023/09/30 04:47:01;;;;;;;6.40;3.60;;;12.50;99.90;;;;;;2068816;28;20222;-86
2023/09/30 04:48:02;;;;;;;7.07;3.77;;;12.50;99.90;;;;;;2068292;28;20229;-85
2023/09/30 04:49:08;;;;;;;8.23;3.63;;;12.50;99.90;;;;;;2067354;28;20218;-85
2023/09/30 04:50:11;;;;;;;7.50;3.47;;;12.50;99.90;;;;;;2076135;28;20373;-86
2023/09/30 04:51:13;;;;;;;5.20;3.33;;;12.50;99.90;;;;;;2067560;28;20182;-86
2023/09/30 04:52:14;;;;;;;7.10;3.35;;;12.50;99.90;;;;;;2068818;28;20647;-86
2023/09/30 04:53:17;;;;;;;6.57;3.17;;;12.50;99.90;;;;;;2074268;28;20192;-86
2023/09/30 04:54:17;;;;;;;7.97;3.55;;;12.50;99.90;;;;;;2071738;28;20211;-86
2023/09/30 04:55:18;;;;;;;6.67;3.53;;;12.50;99.90;;;;;;2075193;28;20194;-86
2023/09/30 04:56:19;;;;;;;8.32;3.90;;;12.50;99.90;;;;;;2075451;28;20178;-86
2023/09/30 04:57:20;;;;;;;7.83;3.70;;;12.50;99.90;;;;;;2075024;28;20603;-85
2023/09/30 04:58:20;;;;;;;8.30;4.20;;;12.60;99.90;;;;;;2074745;28;20190;-85
2023/09/30 04:59:22;;;;;;;6.80;3.57;;;12.60;99.90;;;;;;2074281;28;20197;-85
2023/09/30 05:00:25;;;;;;;5.63;3.25;;;12.70;99.90;;;;;;2072097;28;20181;-86
2023/09/30 05:01:25;;;;;;;5.65;3.13;;;12.70;99.90;;;;;;2072643;28;20244;-85
2023/09/30 05:02:27;;;;;;;5.83;3.50;;;12.70;99.90;;;;;;2074386;28;20253;-85
2023/09/30 05:03:28;;;;;;;6.88;3.90;;;12.70;99.90;;;;;;2074593;28;20229;-86
2023/09/30 05:04:29;;;;;;;7.07;4.17;;;12.60;99.90;;;;;;2065868;28;20309;-86
2023/09/30 05:05:30;;;;;;;6.18;3.65;;;12.60;99.90;;;;;;2074300;28;20256;-85
2023/09/30 05:06:32;;;;;;;8.63;4.37;;;12.50;99.90;;;;;;2074147;28;20236;-86
2023/09/30 05:07:33;;;;;;;7.10;3.47;;;12.50;99.90;;;;;;2073283;28;20232;-86
2023/09/30 05:08:33;;;;;;;7.17;3.50;;;12.50;99.90;;;;;;2075031;28;20630;-85
2023/09/30 05:09:34;;;;;;;5.87;3.57;;;12.40;99.90;;;;;;2073443;28;20264;-85
2023/09/30 05:10:35;;;;;;;6.17;3.50;;;12.50;99.90;;;;;;2074868;28;20236;-85
2023/09/30 05:11:35;;;;;;;6.20;3.77;;;12.50;99.90;;;;;;2074327;28;20287;-86
2023/09/30 05:12:36;;;;;;;5.97;3.27;;;12.50;99.90;;;;;;2074933;28;20236;-86
2023/09/30 05:13:37;;;;;;;8.10;3.65;;;12.50;99.90;;;;;;2066112;28;20242;-85
2023/09/30 05:14:38;;;;;;;7.53;3.73;;;12.50;99.90;;;;;;2073803;28;20569;-86
2023/09/30 05:15:39;;;;;;;8.52;4.07;;;12.50;99.90;;;;;;2077361;28;20233;-85
2023/09/30 05:16:39;;;;;;;7.93;4.17;;;12.40;99.90;;;;;;2076593;28;20305;-84
2023/09/30 05:17:40;;;;;;;7.53;4.17;;;12.30;99.90;;;;;;2073622;28;20235;-85
2023/09/30 05:18:41;;;;;;;8.43;4.10;;;12.30;99.90;;;;;;2073400;28;20226;-85